Clementon, New Jersey
Current Conditions -  °F | °C
As of 8:54 AM on Wednesday 22 Oct 2014 (Local Time) from KVAY Reporting Station
Light Rain Light Rain  
Wind Chill: 56°   Ceiling: 7500
Heat Index: 56°   Visibility: 7mi
Dew Point: 52°   Wind: 16mph
Humidity: 87%   Direction: 20°NNE
Pressure: 29.86"   Gusts: 24mph
Location:  39.81°N, 74.99°W
Report Text: KVAY 221254Z AUTO 02014G21KT 7SM -RA SCT009 SCT044 BKN075 13/11 A2986 RMK AO2 RAB46 SLP111 P0001 T01330111
Loading
Personal Weather Stations






























Interactive Weather Map
Tropical Storm Tracking
New forecast layout! Learn more

10-Day Weather Forecast

Advertisements
Track Severe Weather on mobile